Overview Statistics Trail Chart Weather Telemetry Raw packets
 

This is the latest recevied weather packets stored in our database for station/object Seibranz. If no packets are shown the sender has not sent any weather packets the latest 10 day(s).

<< 1 2 3 4 5 6 >>
Time Temp. Humidity Pressure Rain* Wind** Luminosity Snow
1788489130 16.11° C 76% 1020.7 hPa 0 mm - - -
1788487330 16.67° C 76% 1020.9 hPa 0 mm - - -
1788485530 15.56° C 78% 1021 hPa 0 mm - - -
1788483730 16.11° C 78% 1021.3 hPa 0 mm - - -
1788481931 15.56° C 78% 1021.4 hPa 0 mm - - -
1788480131 16.11° C 77% 1021.6 hPa 0 mm - - -
1788478331 16.67° C 77% 1021.8 hPa 0 mm - - -
1788476531 16.11° C 79% 1022 hPa 0 mm - - -
1788474731 15° C 82% 1022.1 hPa 0 mm - - -
1788472931 15.56° C 79% 1022.4 hPa 0 mm - - -
1788471131 15° C 81% 1021.9 hPa 0 mm - - -
1788469331 16.11° C 78% 1021.8 hPa 0 mm - - -
1788467531 15.56° C 79% 1022.1 hPa 0 mm - - -
1788465730 15° C 82% 1021.7 hPa 0 mm - - -
1788463931 15.56° C 79% 1021.5 hPa 0 mm - - -
1788462131 15.56° C 81% 1021.2 hPa 0 mm - - -
1788460330 16.67° C 78% 1021.1 hPa 0 mm - - -
1788458531 17.78° C 74% 1020.9 hPa 0 mm - - -
1788456731 19.44° C 67% 1020.7 hPa 0 mm - - -
1788454941 19.44° C 66% 1020.7 hPa 0 mm - - -
1788453130 20° C 65% 1020.8 hPa 0 mm - - -
1788451331 21.11° C 62% 1020.7 hPa 0 mm - - -
1788449530 21.67° C 58% 1020.9 hPa 0 mm - - -
1788447730 21.67° C 57% 1020.8 hPa 0 mm - - -
1788445930 22.78° C 56% 1020.9 hPa 0 mm - - -

* Rain since midnight (hover to see other rain measurements)
** Current wind speed in m/s (hover to see current wind gust speed)